Grand Canyon National Park, AZ

5:13 AM MST on September 22, 2014 (GMT -0700)
KAZGRAND3 | Change Station
CLOSE
Current Station
Personal Weather Station
Location: Grand Canyon, AZ
Elevation: 6991 ft
Nearby Weather Stations

Elev 6991 ft 36.05 °N, 112.12 °W | Updated 2 seconds ago

Clear
Clear
49.7 °F
Feels Like 50 °F
N
0.0
Wind Variable Wind from SW
Gusts 0.0 mph

Today
High -- | Low -- °F
--% Chance of Precip.
Yesterday
High -- | Low -- °F
Precip. -- in
6:16 AM 6:25 PM
Waning Crescent, 3% visible
Pressure 30.10 in
Visibility 10.0 miles
Clouds Clear
Windchill 50 °F
Dew Point 39 °F
Humidity 67%
Rainfall 0.00 in
Snow Depth 0 in , 0 in , 0 in
UV 0 out of 12
Pollen 6.30 out of 12
Air Quality Not available.
Flu Activity Not available.
METAR KGCN 221154Z 00000KT 10SM CLR 04/03 A3031 RMK AO2 SLP192 T00440033 10089 20044 53002

More Conditions Fewer Conditions

Pressure 30.10 in
Visibility 10.0 miles
Clouds Clear
Windchill 50 °F
Dew Point 39 °F
Humidity 67%
Rainfall 0.00 in
Snow Depth 0 in , 0 in , 0 in
UV 0 out of 12
Pollen 6.30 out of 12
Air Quality Not available.
Flu Activity Not available.
METAR KGCN 221154Z 00000KT 10SM CLR 04/03 A3031 RMK AO2 SLP192 T00440033 10089 20044 53002

More Conditions Fewer Conditions

10-Day Weather Forecast

Almanac

Astronomy

Sep. 22, 2014 Rise Set
Actual Time 6:16 AM MST 6:25 PM MST
Civil Twilight 5:50 AM MST 6:50 PM MST
Nautical Twilight 5:21 AM MST 7:20 PM MST
Astronomical Twilight 4:50 AM MST 7:50 PM MST
Moon 4:50 AM MST 5:33 PM MST
Length of Visible Light 12h 59m
Length of Day
12h 08m
Tomorrow will be 2m 16s shorter.
Waning Crescent, 3% of the Moon is Illuminated
Today
Waning Crescent
Sep 24
New
Oct 1
First Quarter
Oct 8
Full
Oct 15
Last Quarter

Today's Extremes

State Highs State Lows

Community

WunderPhotos

Upload Photos

1,755,417 photos uploaded!

WunderBlogs® & News

Nearby

Snow Depth

Station Depth Elevation
Promontory 0 in 7930 ft
Fry 0 in 7200 ft
Snowslide Canyon 0 in 9730 ft
Coronado Trail 0 in 8400 ft
Happy Jack 0 in 7630 ft

Earthquake Activity

City Distance Mag. Time & Date
No recent earthquake activity has been reported nearby.
Minimum magnitude displayed is 2.5.

Coastal Water Temperatures

Place Temperature
No Stations Reporting

Nearby Weather Stations